Home > Products > Valid Products > MTR

000
SAUS41 KCAR 242319
MTR40B
METAR K40B 242319Z AUTO 24007G14KT 180V310 19/07 A2997 RMK AO1
     SLP144 T01890065 52004





000
SAUS41 KCAR 242257
MTRGNR
METAR KGNR 242256Z AUTO 00000KT 20/05 A3000 RMK AO1 SLP162 T02000050





000
SAUS41 KCAR 242257
MTRGNR
METAR KGNR 242256Z AUTO 00000KT 20/05 A3000 RMK AO1 SLP162 T02000050





000
SAUS41 KCAR 242216
MTR40B
METAR K40B 242216Z AUTO 24008G21KT 170V350 20/05 A2996 RMK AO1
     SLP142 T01990054 52002





000
SAUS41 KCAR 242157
MTRGNR
METAR KGNR 242156Z AUTO 22/04 A3000 RMK AO1 SLP160 T02170044





000
SAUS41 KCAR 242157
MTRGNR
METAR KGNR 242156Z AUTO 22/04 A3000 RMK AO1 SLP160 T02170044





000
SAUS41 KCAR 242120
MTR40B
METAR K40B 242120Z AUTO 23008G21KT 090V280 20/06 A2996 RMK AO1 PK
     WND 22028/2014 SLP144 T02000057 51004





000
SAUS41 KCAR 242057
MTRGNR
METAR KGNR 242056Z AUTO VRB04KT 20/06 A3000 RMK AO1 SLP164 T02000056
56007





000
SAUS41 KCAR 242020
MTR40B
METAR K40B 242020Z AUTO 25008G24KT 170V290 20/04 A2995 RMK AO1 PK
     WND 23026/1929 SLP141 T02020043 57005





000
SAUS41 KCAR 241958
MTRGNR
METAR KGNR 241956Z AUTO VRB03KT 20/06 A3000 RMK AO1 SLP164 T02000061





000
SAUS41 KCAR 241916
MTR40B
METAR K40B 241916Z AUTO 24008G25KT 160V310 20/04 A2995 RMK AO1 PK
     WND 25028/1854 SLP144 T01980039 58003





000
SAUS41 KCAR 241857
MTRGNR
METAR KGNR 241856Z AUTO VRB05KT 20/06 A3002 RMK AO1 SLP169 T02000061





000
SAUS41 KCAR 241816
MTR40B
METAR K40B 241816Z AUTO VRB06G20KT 20/04 A2996 RMK AO1 PK WND
     20025/1738 SLP148 T02010036 10206 20115 57005





000
SAUS41 KCAR 241758
MTRGNR
METAR KGNR 241756Z AUTO 31007G18KT 260V010 18/06 A3002 RMK AO1
SLP172 T01780056 10211 20128 53001





000
SAUS41 KCAR 241720
MTR40B
METAR K40B 241720Z AUTO 26008G24KT 200V050 19/03 A2996 RMK AO1 PK
     WND 25031/1640 SLP150 T01870030 50001





000
SAUS41 KCAR 241657
MTRGNR
METAR KGNR 241656Z AUTO VRB04KT 20/05 A3002 RMK AO1 PK WND
32026/1623 SLP171 T02000050





000
SAUS41 KCAR 241657
MTRGNR
METAR KGNR 241656Z AUTO VRB04KT 20/05 A3002 RMK AO1 PK WND
32026/1623 SLP171 T02000050





000
SAUS41 KCAR 241616
MTR40B
METAR K40B 241616Z AUTO 25010G21KT 180V360 18/04 A2997 RMK AO1 PK
     WND 21029/1546 SLP153 T01800036 54001





000
SAUS41 KCAR 241616
MTR40B
METAR K40B 241616Z AUTO 25010G21KT 180V360 18/04 A2997 RMK AO1 PK
     WND 21029/1546 SLP153 T01800036 54001





000
SAUS41 KCAR 241558
MTRGNR
METAR KGNR 241556Z AUTO 30007G20KT 240V060 20/05 A3001 RMK AO1
SLP165 T02000050





000
SAUS41 KCAR 241519
MTR40B
METAR K40B 241519Z AUTO 25009G25KT 160V000 17/04 A2998 RMK AO1 PK
     WND 21026/1419 SLP157 T01690044 53002





000
SAUS41 KCAR 241457
MTRGNR
METAR KGNR 241456Z AUTO VRB06KT 18/05 A3002 RMK AO1 SLP171 T01830050
56003





000
SAUS41 KCAR 241457
MTRGNR
METAR KGNR 241456Z AUTO VRB06KT 18/05 A3002 RMK AO1 SLP171 T01830050
56003





000
SAUS41 KCAR 241419
MTR40B
METAR K40B 241419Z AUTO 23006G20KT 090V040 15/05 A2997 RMK AO1 PK
     WND 23026/1407 SLP154 T01540048 50000





000
SAUS41 KCAR 241358
MTRGNR
METAR KGNR 241356Z AUTO 31009G20KT 250V340 17/04 A3002 RMK AO1
SLP172 T01720044





000
SAUS41 KCAR 241316
MTR40B
METAR K40B 241316Z AUTO 21007G16KT 160V290 13/05 A2997 RMK AO1
     SLP158 T01310051 51003





000
SAUS41 KCAR 241316
MTR40B
METAR K40B 241316Z AUTO 21007G16KT 160V290 13/05 A2997 RMK AO1
     SLP158 T01310051 51003





000
SAUS41 KCAR 241257
MTRGNR
METAR KGNR 241256Z AUTO 30007KT 160V010 15/04 A3002 RMK AO1 SLP172
T01500039





000
SAUS41 KCAR 241220
MTR40B
METAR K40B 241220Z AUTO 23008G18KT 140V340 12/04 A2997 RMK AO1
     SLP157 T01170043 10116 20078 51009 70000





000
SAUS41 KCAR 241157
MTRGNR
METAR KGNR 241156Z AUTO VRB04KT 13/03 A3003 RMK AO1 SLP175 T01280028
10128 20039 50004





000
SAUS41 KCAR 241119
MTR40B
METAR K40B 241119Z AUTO 24006G16KT 180V270 09/03 A2997 RMK AO1
     SLP156 T00940034 53005





000
SAUS41 KCAR 241058
MTRGNR
METAR KGNR 241056Z AUTO VRB03KT 09/01 A3004 RMK AO1 SLP179 T00940006





000
SAUS41 KCAR 241016
MTR40B
METAR K40B 241016Z AUTO 23007G14KT 160V290 08/03 A2996 RMK AO1
     SLP153 T00820032 55000





000
SAUS41 KCAR 240957
MTRGNR
METAR KGNR 240956Z AUTO VRB03KT 08/M01 A3003 RMK AO1 SLP179
T00781011





000
SAUS41 KCAR 240920
MTR40B
METAR K40B 240920Z AUTO 21009G21KT 180V330 08/00 A2994 RMK AO1
     SLP147 T00810004 57010





000
SAUS41 KCAR 240858
MTRGNR
METAR KGNR 240856Z AUTO 00000KT 07/M02 A3001 RMK AO1 SLP173
T00671022 56013





000
SAUS41 KCAR 240819
MTR40B
METAR K40B 240819Z AUTO VRB04G11KT 08/01 A2995 RMK AO1 SLP150
     T00790008 56017





000
SAUS41 KCAR 240819
MTR40B
METAR K40B 240819Z AUTO VRB04G11KT 08/01 A2995 RMK AO1 SLP150
     T00790008 56017





000
SAUS41 KCAR 240757
MTRGNR
METAR KGNR 240756Z AUTO 00000KT 05/M03 A3002 RMK AO1 SLP175
T00501033





000
SAUS41 KCAR 240716
MTR40B
METAR K40B 240716Z AUTO 20007G10KT 09/M01 A2996 RMK AO1 SLP153
     T00871007 56021





000
SAUS41 KCAR 240657
MTRGNR
METAR KGNR 240656Z AUTO 00000KT 04/M03 A3003 RMK AO1 SLP181
T00391033





000
SAUS41 KCAR 240657
MTRGNR
METAR KGNR 240656Z AUTO 00000KT 04/M03 A3003 RMK AO1 SLP181
T00391033





000
SAUS41 KCAR 240620
MTR40B
METAR K40B 240620Z AUTO 20006G14KT 160V260 08/M01 A2997 RMK AO1
     SLP157 T00841005 10091 20053 58022 60000





000
SAUS41 KCAR 240557
MTRGNR
METAR KGNR 240556Z AUTO VRB04KT 07/M03 A3005 RMK AO1 SLP186
T00671033 10089 20050 58015





000
SAUS41 KCAR 240557
MTRGNR
METAR KGNR 240556Z AUTO VRB04KT 07/M03 A3005 RMK AO1 SLP186
T00671033 10089 20050 58015





000
SAUS41 KCAR 240519
MTR40B
METAR K40B 240519Z AUTO 22006G16KT 150V330 09/00 A3001 RMK AO1
     SLP168 T00911004 401151018 58014 P0000





000
SAUS41 KCAR 240458
MTRGNR
METAR KGNR 240456Z AUTO 00000KT 06/M03 A3008 RMK AO1 SLP196
T00611033 401111011





000
SAUS41 KCAR 240416
MTR40B
METAR K40B 240416Z AUTO VRB06G15KT 08/M01 A3003 RMK AO1 SLP175
     T00841012 57012





000
SAUS41 KCAR 240416
MTR40B
METAR K40B 240416Z AUTO VRB06G15KT 08/M01 A3003 RMK AO1 SLP175
     T00841012 57012





000
SAUS41 KCAR 240357
MTRGNR
METAR KGNR 240356Z AUTO 00000KT 07/M04 A3009 RMK AO1 SLP200
T00721039





000
SAUS41 KCAR 240319
MTR40B
METAR K40B 240319Z AUTO VRB03KT 06/M03 A3004 RMK AO1 SLP180
     T00571030 58006





000
SAUS41 KCAR 240258
MTRGNR
METAR KGNR 240256Z AUTO 00000KT 05/M03 A3010 RMK AO1 SLP204
T00501028 58003





000
SAUS41 KCAR 240258
MTRGNR
METAR KGNR 240256Z AUTO 00000KT 05/M03 A3010 RMK AO1 SLP204
T00501028 58003





000
SAUS41 KCAR 240221
MTR40B
METAR K40B 240221Z AUTO VRB04G10KT 07/M02 A3005 RMK AO1 SLP184
     T00711023 50000





000
SAUS41 KCAR 240157
MTRGNR
METAR KGNR 240156Z AUTO 00000KT 07/M04 A3011 RMK AO1 SLP210
T00721044





000
SAUS41 KCAR 240157
MTRGNR
METAR KGNR 240156Z AUTO 00000KT 07/M04 A3011 RMK AO1 SLP210
T00721044





000
SAUS41 KCAR 240116
MTR40B
METAR K40B 240116Z AUTO 00000KT 06/M02 A3006 RMK AO1 SLP188
     T00641023 54001





000
SAUS41 KCAR 240116
MTR40B
METAR K40B 240116Z AUTO 00000KT 06/M02 A3006 RMK AO1 SLP188
     T00641023 54001





000
SAUS41 KCAR 240058
MTRGNR
METAR KGNR 240056Z AUTO VRB03KT 08/M05 A3012 RMK AO1 SLP210
T00831050





000
SAUS41 KCAR 240058
MTRGNR
METAR KGNR 240056Z AUTO VRB03KT 08/M05 A3012 RMK AO1 SLP210
T00831050





000
SAUS41 KCAR 240020
MTR40B
METAR K40B 240020Z AUTO VRB03KT 09/M03 A3006 RMK AO1 SLP187
     T00871034 10115 20084 57004





000
SAUS41 KCAR 240020
MTR40B
METAR K40B 240020Z AUTO VRB03KT 09/M03 A3006 RMK AO1 SLP187
     T00871034 10115 20084 57004





000
SAUS41 KCAR 232357
MTRGNR
METAR KGNR 232356Z AUTO 00000KT 08/M04 A3011 RMK AO1 SLP209
T00831039 10111 20083 53004





000
SAUS41 KCAR 232320
MTR40B
METAR K40B 232320Z AUTO 24007G16KT 160V320 10/M05 A3006 RMK AO1
     SLP188 T01021047 57004





000
SAUS41 KCAR 232320
MTR40B
METAR K40B 232320Z AUTO 24007G16KT 160V320 10/M05 A3006 RMK AO1
     SLP188 T01021047 57004





000
SAUS41 KCAR 232258
MTRGNR
METAR KGNR 232256Z AUTO VRB03KT 09/M04 A3010 RMK AO1 SLP205
T00941039





000
SAUS41 KCAR 232258
MTRGNR
METAR KGNR 232256Z AUTO VRB03KT 09/M04 A3010 RMK AO1 SLP205
T00941039





000
SAUS41 KCAR 232216
MTR40B
METAR K40B 232216Z AUTO VRB04G15KT 11/M05 A3006 RMK AO1 PK WND
     22026/2137 SLP191 T01121055 57003





000
SAUS41 KCAR 232157
MTRGNR
METAR KGNR 232156Z AUTO VRB06G14KT 11/M05 A3010 RMK AO1 SLP204
T01061050





000
SAUS41 KCAR 232157
MTRGNR
METAR KGNR 232156Z AUTO VRB06G14KT 11/M05 A3010 RMK AO1 SLP204
T01061050





000
SAUS41 KCAR 232119
MTR40B
METAR K40B 232119Z AUTO 24008G19KT 170V320 11/M06 A3007 RMK AO1
     SLP195 T01061063 57004





000
SAUS41 KCAR 232057
MTRGNR
METAR KGNR 232056Z AUTO 31009G18KT 11/M07 A3010 RMK AO1 SLP205
T01061067 58002





000
SAUS41 KCAR 232020
MTR40B
METAR K40B 232020Z AUTO VRB06G16KT 11/M06 A3007 RMK AO1 SLP196
     T01081062 50000





000
SAUS41 KCAR 231958
MTRGNR
METAR KGNR 231956Z AUTO 30008G23KT 270V330 11/M07 A3010 RMK AO1
SLP207 T01061067





000
SAUS41 KCAR 231916
MTR40B
METAR K40B 231916Z AUTO VRB05G19KT 11/M06 A3007 RMK AO1 SLP199
     T01081064 57002





000
SAUS41 KCAR 231857
MTRGNR
METAR KGNR 231856Z AUTO 31009G21KT 240V340 09/M07 A3011 RMK AO1 PK
WND 33026/1819 SLP209 T00941067





000
SAUS41 KCAR 231857
MTRGNR
METAR KGNR 231856Z AUTO 31009G21KT 240V340 09/M07 A3011 RMK AO1 PK
WND 33026/1819 SLP209 T00941067





000
SAUS41 KCAR 231820
MTR40B
METAR K40B 231820Z AUTO VRB06G15KT 09/M07 A3008 RMK AO1 SLP203
     T00921069 10104 20007 55000





000
SAUS41 KCAR 231820
MTR40B
METAR K40B 231820Z AUTO VRB06G15KT 09/M07 A3008 RMK AO1 SLP203
     T00921069 10104 20007 55000





000
SAUS41 KCAR 231757
MTRGNR
METAR KGNR 231756Z AUTO 30009G25KT 240V330 09/M07 A3010 RMK AO1 PK
WND 33027/1731 SLP206 T00941067 10100 20011 51004





000
SAUS41 KCAR 231757
MTRGNR
METAR KGNR 231756Z AUTO 30009G25KT 240V330 09/M07 A3010 RMK AO1 PK
WND 33027/1731 SLP206 T00941067 10100 20011 51004





000
SAUS41 KCAR 231720
MTR40B
METAR K40B 231720Z AUTO 25008G20KT 100V060 10/M04 A3007 RMK AO1 PK
     WND 28027/1619 SLP201 T00951045 50000





000
SAUS41 KCAR 231657
MTRGNR
METAR KGNR 231656Z AUTO 32008G26KT 280V360 07/M08 A3010 RMK AO1 PK
WND 32026/1651 SLP206 T00721083





000
SAUS41 KCAR 231657
MTRGNR
METAR KGNR 231656Z AUTO 32008G26KT 280V360 07/M08 A3010 RMK AO1 PK
WND 32026/1651 SLP206 T00721083





000
SAUS41 KCAR 231616
MTR40B
METAR K40B 231616Z AUTO VRB05G18KT 07/M01 A3008 RMK AO1 SLP204
     T00721013 50008





000
SAUS41 KCAR 231558
MTRGNR
METAR KGNR 231556Z AUTO 30009G20KT 250V340 07/M08 A3009 RMK AO1 PK
WND 33028/1523 SLP203 T00671078





000
SAUS41 KCAR 231519
MTR40B
METAR K40B 231519Z AUTO VRB04G16KT 05/M01 A3008 RMK AO1 SLP205
     T00461007 52012





000
SAUS41 KCAR 231519
MTR40B
METAR K40B 231519Z AUTO VRB04G16KT 05/M01 A3008 RMK AO1 SLP205
     T00461007 52012





000
SAUS41 KCAR 231457
MTRGNR
METAR KGNR 231456Z AUTO 33013G22KT 07/M04 A3009 RMK AO1 SLP201
T00671044 51019





000
SAUS41 KCAR 231419
MTR40B
METAR K40B 231419Z AUTO VRB04G15KT 05/01 A3007 RMK AO1 SLP201
     T00500011 51015





000
SAUS41 KCAR 231419
MTR40B
METAR K40B 231419Z AUTO VRB04G15KT 05/01 A3007 RMK AO1 SLP201
     T00500011 51015





000
SAUS41 KCAR 231358
MTRGNR
METAR KGNR 231356Z AUTO 31008G21KT 270V350 04/M04 A3009 RMK AO1 PK
WND 32028/1318 SLP200 T00441039





000
SAUS41 KCAR 231316
MTR40B
METAR K40B 231316Z AUTO VRB05G13KT 03/01 A3005 RMK AO1 SLP196
     T00330009 51018





000
SAUS41 KCAR 231316
MTR40B
METAR K40B 231316Z AUTO VRB05G13KT 03/01 A3005 RMK AO1 SLP196
     T00330009 51018





000
SAUS41 KCAR 231257
MTRGNR
METAR KGNR 231256Z AUTO 31009G22KT 260V350 02/M04 A3006 RMK AO1 PK
WND 32027/1241 SLP192 T00221039





000
SAUS41 KCAR 231257
MTRGNR
METAR KGNR 231256Z AUTO 31009G22KT 260V350 02/M04 A3006 RMK AO1 PK
WND 32027/1241 SLP192 T00221039





000
SAUS41 KCAR 231220
MTR40B
METAR K40B 231220Z AUTO 25007G16KT 190V320 01/M01 A3004 RMK AO1
     SLP192 T00081008 10010 21018 51023 P0000 60002 70019





000
SAUS41 KCAR 231220
MTR40B
METAR K40B 231220Z AUTO 25007G16KT 190V320 01/M01 A3004 RMK AO1
     SLP192 T00081008 10010 21018 51023 P0000 60002 70019





000
SAUS41 KCAR 231157
MTRGNR
METAR KGNR 231156Z AUTO 31009G18KT 270V340 02/M04 A3003 RMK AO1 PK
WND 32027/1111 PRESRR SLP182 70002 T00171044 10028 21011 53019





000
SAUS41 KCAR 231157
MTRGNR
METAR KGNR 231156Z AUTO 31009G18KT 270V340 02/M04 A3003 RMK AO1 PK
WND 32027/1111 PRESRR SLP182 70002 T00171044 10028 21011 53019





000
SAUS41 KCAR 231120
MTR40B
METAR K40B 231120Z AUTO VRB03KT M01/M02 A3002 RMK AO1 SLP185
     T10071017 52022





000
SAUS41 KCAR 231120
MTR40B
METAR K40B 231120Z AUTO VRB03KT M01/M02 A3002 RMK AO1 SLP185
     T10071017 52022





000
SAUS41 KCAR 231058
MTRGNR
METAR KGNR 231056Z AUTO 31011G22KT 01/M06 A3000 RMK AO1 SLP173
T00111056





000
SAUS41 KCAR 231058
MTRGNR
METAR KGNR 231056Z AUTO 31011G22KT 01/M06 A3000 RMK AO1 SLP173
T00111056





000
SAUS41 KCAR 231016
MTR40B
METAR K40B 231016Z AUTO VRB03KT M02/M03 A3000 RMK AO1 SLP176
     T10181028 52019





000
SAUS41 KCAR 230957
MTRGNR
METAR KGNR 230956Z AUTO 30008G14KT 260V350 00/M06 A2998 RMK AO1
SLP166 T00001061





000
SAUS41 KCAR 230920
MTR40B
METAR K40B 230920Z AUTO VRB03KT M01/M02 A2997 RMK AO1 SLP165
     T10111022 52012 60001





000
SAUS41 KCAR 230858
MTRGNR
METAR KGNR 230856Z AUTO 30007KT 210V340 M01/M07 A2997 RMK AO1 SLP161
T10061067 51010





000
SAUS41 KCAR 230820
MTR40B
METAR K40B 230820Z AUTO VRB04KT 00/M01 A2995 RMK AO1 SLP159
     T00011008 52006 P0000





000
SAUS41 KCAR 230757
MTRGNR
METAR KGNR 230756Z AUTO VRB05KT M01/M07 A2997 RMK AO1 SLP160
T10061067





000
SAUS41 KCAR 230716
MTR40B
METAR K40B 230716Z AUTO VRB02KT 00/00 A2994 RMK AO1 SLP153
     T00030001 54001 P0001





000
SAUS41 KCAR 230658
MTRGNR
METAR KGNR 230656Z AUTO VRB06KT 00/M05 A2995 RMK AO1 SLP153
T00001050





000
SAUS41 KCAR 230620
MTR40B
METAR K40B 230620Z AUTO VRB03KT 00/00 A2993 RMK AO1 SLP150
     T00040002 10041 20003 54000 P0003 60017





000
SAUS41 KCAR 230620
MTR40B
METAR K40B 230620Z AUTO VRB03KT 00/00 A2993 RMK AO1 SLP150
     T00040002 10041 20003 54000 P0003 60017





000
SAUS41 KCAR 230557
MTRGNR
METAR KGNR 230556Z AUTO VRB06KT 01/M03 A2994 RMK AO1 SLP150 60002
T00061033 10072 20006 51005





000
SAUS41 KCAR 230557
MTRGNR
METAR KGNR 230556Z AUTO VRB06KT 01/M03 A2994 RMK AO1 SLP150 60002
T00061033 10072 20006 51005





000
SAUS41 KCAR 230519
MTR40B
METAR K40B 230519Z AUTO 00000KT 00/00 A2993 RMK AO1 SLP149
     T00040002 401340003 51005 P0008





000
SAUS41 KCAR 230519
MTR40B
METAR K40B 230519Z AUTO 00000KT 00/00 A2993 RMK AO1 SLP149
     T00040002 401340003 51005 P0008





000
SAUS41 KCAR 230458
MTRGNR
METAR KGNR 230456Z AUTO VRB04KT 02/00 A2993 RMK AO1 SLP148 T00170000
401390011





000
SAUS41 KCAR 230458
MTRGNR
METAR KGNR 230456Z AUTO VRB04KT 02/00 A2993 RMK AO1 SLP148 T00170000
401390011





000
SAUS41 KCAR 230416
MTR40B
METAR K40B 230416Z AUTO 00000KT 00/00 A2994 RMK AO1 SLP149
     T00040001 51011 P0005





000
SAUS41 KCAR 230357
MTRGNR
METAR KGNR 230356Z AUTO 31007G18KT 250V360 02/01 A2993 RMK AO1
SLP146 P0001 T00220006





000
SAUS41 KCAR 230320
MTR40B
METAR K40B 230320Z AUTO VRB03KT 02/01 A2993 RMK AO1 SLP147
     T00180009 51017 P0000 60000





000
SAUS41 KCAR 230258
MTRGNR
METAR KGNR 230256Z AUTO 31006KT 04/02 A2992 RMK AO1 SLP142 P0001
60001 T00390022 51018





000
SAUS41 KCAR 230258
MTRGNR
METAR KGNR 230256Z AUTO 31006KT 04/02 A2992 RMK AO1 SLP142 P0001
60001 T00390022 51018





000
SAUS41 KCAR 230220
MTR40B
METAR K40B 230220Z AUTO VRB03KT 04/01 A2992 RMK AO1 SLP141
     T00410008 53015





000
SAUS41 KCAR 230220
MTR40B
METAR K40B 230220Z AUTO VRB03KT 04/01 A2992 RMK AO1 SLP141
     T00410008 53015





000
SAUS41 KCAR 230157
MTRGNR
METAR KGNR 230156Z AUTO VRB06KT 07/M02 A2991 RMK AO1 SLP135
T00671017





000
SAUS41 KCAR 230116
MTR40B
METAR K40B 230116Z AUTO 00000KT 03/M01 A2990 RMK AO1 SLP134
     T00291006 53011





000
SAUS41 KCAR 230116
MTR40B
METAR K40B 230116Z AUTO 00000KT 03/M01 A2990 RMK AO1 SLP134
     T00291006 53011





000
SAUS41 KCAR 230058
MTRGNR
METAR KGNR 230056Z AUTO VRB04KT 07/M03 A2989 RMK AO1 SLP129
T00721028





000
SAUS41 KCAR 230058
MTRGNR
METAR KGNR 230056Z AUTO VRB04KT 07/M03 A2989 RMK AO1 SLP129
T00721028





000
SAUS41 KCAR 230020
MTR40B
METAR K40B 230020Z AUTO 00000KT 03/M01 A2988 RMK AO1 SLP126
     T00321007 10101 20033 52007





000
SAUS41 KCAR 230020
MTR40B
METAR K40B 230020Z AUTO 00000KT 03/M01 A2988 RMK AO1 SLP126
     T00321007 10101 20033 52007





000
SAUS41 KCAR 222357
MTRGNR
METAR KGNR 222356Z AUTO 32005KT 07/M02 A2987 RMK AO1 SLP123
T00721017 10128 20072 53024





000
SAUS41 KCAR 222357
MTRGNR
METAR KGNR 222356Z AUTO 32005KT 07/M02 A2987 RMK AO1 SLP123
T00721017 10128 20072 53024





000
SAUS41 KCAR 222320
MTR40B
METAR K40B 222320Z AUTO 00000KT 07/M03 A2987 RMK AO1 SLP123
     T00681028 51013





000
SAUS41 KCAR 222320
MTR40B
METAR K40B 222320Z AUTO 00000KT 07/M03 A2987 RMK AO1 SLP123
     T00681028 51013





000
SAUS41 KCAR 222258
MTRGNR
METAR KGNR 222256Z AUTO 32009G16KT 08/M02 A2984 RMK AO1 SLP114
T00831022





000
SAUS41 KCAR 222216
MTR40B
METAR K40B 222216Z AUTO VRB03KT 08/M03 A2987 RMK AO1 SLP120
     T00821027 51016





000
SAUS41 KCAR 222216
MTR40B
METAR K40B 222216Z AUTO VRB03KT 08/M03 A2987 RMK AO1 SLP120
     T00821027 51016





000
SAUS41 KCAR 222157
MTRGNR
METAR KGNR 222156Z AUTO 32009G20KT 09/M01 A2982 RMK AO1 SLP106
T00941011





000
SAUS41 KCAR 222119
MTR40B
METAR K40B 222119Z AUTO VRB06G13KT 08/M02 A2986 RMK AO1 SLP118
     T00811022 53014





000
SAUS41 KCAR 222057
MTRGNR
METAR KGNR 222056Z AUTO 31007G22KT 260V340 12/M02 A2980 RMK AO1
SLP097 T01171017 53020





000
SAUS41 KCAR 222020
MTR40B
METAR K40B 222020Z AUTO VRB04G16KT 08/01 A2984 RMK AO1 SLP111
     T00760012 51015





000
SAUS41 KCAR 221958
MTRGNR
METAR KGNR 221956Z AUTO 32014G22KT 12/M01 A2977 RMK AO1 SLP086
T01221006





000
SAUS41 KCAR 221916
MTR40B
METAR K40B 221916Z AUTO VRB04G16KT 09/02 A2982 RMK AO1 SLP105
     T00910022 51016





000
SAUS41 KCAR 221916
MTR40B
METAR K40B 221916Z AUTO VRB04G16KT 09/02 A2982 RMK AO1 SLP105
     T00910022 51016





000
SAUS41 KCAR 221857
MTRGNR
METAR KGNR 221856Z AUTO VRB06G17KT 12/02 A2975 RMK AO1 SLP080
T01220017





000
SAUS41 KCAR 221857
MTRGNR
METAR KGNR 221856Z AUTO VRB06G17KT 12/02 A2975 RMK AO1 SLP080
T01220017





000
SAUS41 KCAR 221820
MTR40B
METAR K40B 221820Z AUTO VRB06G12KT 06/01 A2981 RMK AO1 SLP103
     T00620014 10134 20062 52024





000
SAUS41 KCAR 221820
MTR40B
METAR K40B 221820Z AUTO VRB06G12KT 06/01 A2981 RMK AO1 SLP103
     T00620014 10134 20062 52024





000
SAUS41 KCAR 221758
MTRGNR
METAR KGNR 221756Z AUTO VRB05KT 13/03 A2974 RMK AO1 SLP074 T01280033
10139 20089 50003





000
SAUS41 KCAR 221758
MTRGNR
METAR KGNR 221756Z AUTO VRB05KT 13/03 A2974 RMK AO1 SLP074 T01280033
10139 20089 50003





000
SAUS41 KCAR 221720
MTR40B
METAR K40B 221720Z AUTO 32007G13KT 270V020 07/03 A2979 RMK AO1
     SLP095 T00730030 51026





000
SAUS41 KCAR 221720
MTR40B
METAR K40B 221720Z AUTO 32007G13KT 270V020 07/03 A2979 RMK AO1
     SLP095 T00730030 51026





000
SAUS41 KCAR 221658
MTRGNR
METAR KGNR 221656Z AUTO VRB03KT 11/06 A2974 RMK AO1 SLP075 T01060056





000
SAUS41 KCAR 221658
MTRGNR
METAR KGNR 221656Z AUTO VRB03KT 11/06 A2974 RMK AO1 SLP075 T01060056





000
SAUS41 KCAR 221616
MTR40B
METAR K40B 221616Z AUTO 29007G18KT 200V340 08/04 A2977 RMK AO1
     SLP089 T00810038 53017





000
SAUS41 KCAR 221616
MTR40B
METAR K40B 221616Z AUTO 29007G18KT 200V340 08/04 A2977 RMK AO1
     SLP089 T00810038 53017





000
SAUS41 KCAR 221558
MTRGNR
METAR KGNR 221556Z AUTO 00000KT 12/06 A2973 RMK AO1 SLP075 T01170061





000
SAUS41 KCAR 221558
MTRGNR
METAR KGNR 221556Z AUTO 00000KT 12/06 A2973 RMK AO1 SLP075 T01170061





000
SAUS41 KCAR 221520
MTR40B
METAR K40B 221520Z AUTO VRB04G14KT 11/06 A2974 RMK AO1 SLP078
     T01110057 53008





000
SAUS41 KCAR 221457
MTRGNR
METAR KGNR 221456Z AUTO 00000KT 14/02 A2973 RMK AO1 SLP070 T01390017
55007





000
SAUS41 KCAR 221420
MTR40B
METAR K40B 221420Z AUTO 21007G14KT 140V340 13/02 A2972 RMK AO1
     SLP069 T01280019 56006





000
SAUS41 KCAR 221358
MTRGNR
METAR KGNR 221356Z AUTO 11005KT 13/05 A2972 RMK AO1 SLP069 T01330050





000
SAUS41 KCAR 221316
MTR40B
METAR K40B 221316Z AUTO VRB04G12KT 13/03 A2972 RMK AO1 SLP070
     T01260028 50001





000
SAUS41 KCAR 221257
MTRGNR
METAR KGNR 221256Z AUTO VRB03KT 11/04 A2974 RMK AO1 SLP075 T01110044





000
SAUS41 KCAR 221220
MTR40B
METAR K40B 221220Z AUTO VRB03KT 12/03 A2972 RMK AO1 SLP070
     T01200033 10120 20048 50000





000
SAUS41 KCAR 221220
MTR40B
METAR K40B 221220Z AUTO VRB03KT 12/03 A2972 RMK AO1 SLP070
     T01200033 10120 20048 50000





000
SAUS41 KCAR 221157
MTRGNR
METAR KGNR 221156Z AUTO 13004KT 09/04 A2975 RMK AO1 SLP077 T00940044
10100 20067 50000





000
SAUS41 KCAR 221157
MTRGNR
METAR KGNR 221156Z AUTO 13004KT 09/04 A2975 RMK AO1 SLP077 T00940044
10100 20067 50000





000
SAUS41 KCAR 221119
MTR40B
METAR K40B 221119Z AUTO 00000KT 08/04 A2973 RMK AO1 SLP074
     T00760043 52006





000
SAUS41 KCAR 221119
MTR40B
METAR K40B 221119Z AUTO 00000KT 08/04 A2973 RMK AO1 SLP074
     T00760043 52006





000
SAUS41 KCAR 221058
MTRGNR
METAR KGNR 221056Z AUTO 00000KT 09/03 A2975 RMK AO1 SLP078 T00890028





000
SAUS41 KCAR 221016
MTR40B
METAR K40B 221016Z AUTO 00000KT 06/04 A2972 RMK AO1 SLP070
     T00600035 52003





000
SAUS41 KCAR 221016
MTR40B
METAR K40B 221016Z AUTO 00000KT 06/04 A2972 RMK AO1 SLP070
     T00600035 52003





000
SAUS41 KCAR 220957
MTRGNR
METAR KGNR 220956Z AUTO 00000KT 07/04 A2975 RMK AO1 SLP079 T00720039





000
SAUS41 KCAR 220920
MTR40B
METAR K40B 220920Z AUTO 00000KT 05/03 A2972 RMK AO1 SLP068
     T00530033 55003





000
SAUS41 KCAR 220858
MTRGNR
METAR KGNR 220856Z AUTO 00000KT 07/03 A2975 RMK AO1 SLP078 T00670028
55002





000
SAUS41 KCAR 220819
MTR40B
METAR K40B 220819Z AUTO 00000KT 05/03 A2971 RMK AO1 SLP065
     T00530032 57007





000
SAUS41 KCAR 220819
MTR40B
METAR K40B 220819Z AUTO 00000KT 05/03 A2971 RMK AO1 SLP065
     T00530032 57007





000
SAUS41 KCAR 220757
MTRGNR
METAR KGNR 220756Z AUTO 00000KT 08/02 A2974 RMK AO1 SLP074 T00780022





000
SAUS41 KCAR 220716
MTR40B
METAR K40B 220716Z AUTO 00000KT 07/03 A2971 RMK AO1 SLP064
     T00710031 57012





000
SAUS41 KCAR 220716
MTR40B
METAR K40B 220716Z AUTO 00000KT 07/03 A2971 RMK AO1 SLP064
     T00710031 57012





000
SAUS41 KCAR 220658
MTRGNR
METAR KGNR 220656Z AUTO 14003KT 08/02 A2974 RMK AO1 SLP075 T00830017





000
SAUS41 KCAR 220658
MTRGNR
METAR KGNR 220656Z AUTO 14003KT 08/02 A2974 RMK AO1 SLP075 T00830017





000
SAUS41 KCAR 220620
MTR40B
METAR K40B 220620Z AUTO 00000KT 08/03 A2973 RMK AO1 SLP068
     T00830032 10121 20085 57010





000
SAUS41 KCAR 220557
MTRGNR
METAR KGNR 220556Z AUTO VRB03KT 09/01 A2975 RMK AO1 SLP079 T00890011
10133 20089 56017





000
SAUS41 KCAR 220520
MTR40B
METAR K40B 220520Z AUTO 17010KT 10/03 A2973 RMK AO1 SLP070
     T01000034 401670013 57010





000
SAUS41 KCAR 220520
MTR40B
METAR K40B 220520Z AUTO 17010KT 10/03 A2973 RMK AO1 SLP070
     T01000034 401670013 57010





000
SAUS41 KCAR 220457
MTRGNR
METAR KGNR 220456Z AUTO 00000KT 09/01 A2977 RMK AO1 SLP084 T00890006
401610039





000
SAUS41 KCAR 220457
MTRGNR
METAR KGNR 220456Z AUTO 00000KT 09/01 A2977 RMK AO1 SLP084 T00890006
401610039





000
SAUS41 KCAR 220416
MTR40B
METAR K40B 220416Z AUTO 17009KT 10/03 A2975 RMK AO1 SLP074
     T01030032 57006





000
SAUS41 KCAR 220416
MTR40B
METAR K40B 220416Z AUTO 17009KT 10/03 A2975 RMK AO1 SLP074
     T01030032 57006





000
SAUS41 KCAR 220357
MTRGNR
METAR KGNR 220356Z AUTO 00000KT 09/01 A2979 RMK AO1 SLP090 T00940006





000
SAUS41 KCAR 220319
MTR40B
METAR K40B 220319Z AUTO 17009KT 11/02 A2976 RMK AO1 SLP077
     T01060025 50002





000
SAUS41 KCAR 220319
MTR40B
METAR K40B 220319Z AUTO 17009KT 11/02 A2976 RMK AO1 SLP077
     T01060025 50002





000
SAUS41 KCAR 220258
MTRGNR
METAR KGNR 220256Z AUTO 00000KT 09/01 A2980 RMK AO1 SLP097 T00940006
50006





000
SAUS41 KCAR 220220
MTR40B
METAR K40B 220220Z AUTO 17007KT 11/03 A2977 RMK AO1 SLP079
     T01090026 52006





000
SAUS41 KCAR 220157
MTRGNR
METAR KGNR 220156Z AUTO VRB05KT 11/M01 A2981 RMK AO1 SLP099
T01111011





000
SAUS41 KCAR 220116
MTR40B
METAR K40B 220116Z AUTO VRB05KT 12/03 A2977 RMK AO1 SLP079
     T01160031 52007





000
SAUS41 KCAR 220057
MTRGNR
METAR KGNR 220056Z AUTO 19007KT 12/01 A2980 RMK AO1 SLP095 T01220006





000
SAUS41 KCAR 220020
MTR40B
METAR K40B 220020Z AUTO VRB02KT 11/05 A2975 RMK AO1 SLP075
     T01140049 10167 20110 53002





000
SAUS41 KCAR 220020
MTR40B
METAR K40B 220020Z AUTO VRB02KT 11/05 A2975 RMK AO1 SLP075
     T01140049 10167 20110 53002





000
SAUS41 KCAR 212357
MTRGNR
METAR KGNR 212356Z AUTO 18006KT 13/02 A2979 RMK AO1 SLP091 T01330017
10161 20133 53001





000
SAUS41 KCAR 212357
MTRGNR
METAR KGNR 212356Z AUTO 18006KT 13/02 A2979 RMK AO1 SLP091 T01330017
10161 20133 53001





    US Dept of Commerce
    National Oceanic and Atmospheric Administration
    National Weather Service
    1325 East West Highway
    Silver Spring, MD 20910
    Page Author: NWS Internet Services Team
Disclaimer
Information Quality
Credits
Glossary
Privacy Policy
Freedom of Information Act (FOIA)
About Us
Career Opportunities